To NAV CANADA Home Page Login to a new session Search on AWWS site Disclaimer Vers la page française équivalente Tips FAQ What's new on the site To the Forecasts and Observations / NOTAM section To "File a Flight Plan" website Publications and other links Update of the User's profile FIC Telephone Numbers My Weather Data Folder Route Weather Data Regional Weather Data Local Weather Data To the Forecasts and Observations / NOTAM section
Request Generated 07/18/2019 at 15:55:23 UTC . Weather information available at that time is displayed.


Go to a specific product

Save this request - Inactive

METAR/TAF

CALGARY/YYC CALGARY INTL/AB    

SPECI CYYC 181544Z 28015G21KT 40SM -SHRA FEW060 FEW075CB SCT120TCU BKN170 BKN220 16/01 A2960 RMK CU1CB1TCU2AC3CI1 CU TR DIST CB S MO
VG SSE / TCU NW SLP017 DENSITY ALT 5000FT=
METAR CYYC 181500Z 26007KT 40SM FEW050 SCT070CB BKN085TCU BKN150 BKN230 15/02 A2960 RMK CF1CB3TCU2AC1CI1 CF TR AC TR CI TR VIS SE -
S 15 DIST SH / CB E - S MOVG SSE / TCU NW SLP018 DENSITY ALT 4900FT=
METAR CYYC 181400Z CCA 29013KT 30SM FEW050 FEW090 BKN150 BKN220 BKN230 15/02 A2959 RMK SC1AC2AC3CC1CI1 SC TR CC TR VIRGA S - SW CVCT
V CLD EMBD PRESRR SLP015 DENSITY ALT 4900FT=
METAR CYYC 181400Z 29013KT 30SM FEW050 FEW090 BKN150 BKN220 BKN230 15/02 A2959 RMK SC1AC2AC3CC1CI1 SC TR CC TR PRESRR SLP015 DENSITY
ALT 4900FT=
SPECI CYYC 181339Z 30014KT 20SM BKN180 BKN220 15/02 A2958 RMK AC5CI1 SLP011 DENSITY ALT 4900FT=
LWIS CYYC 181300Z AUTO 28012KT 16/02 A2958=

TAF CYYC 181442Z 1815/1912 29015G25KT P6SM SCT150 BKN240
FM182000 30015G25KT P6SM BKN080 BKN240 TEMPO 1820/1824 P6SM VCSH
FM190000 30015G25KT P6SM FEW080 SCT240
BECMG 1901/1903 29010KT
RMK NXT FCST BY 181800Z=

CALGARY/SPRINGBANK/AB    (show WxCam)

METAR CYBW 181500Z AUTO 27010KT 9SM SCT140 12/04 A2961 RMK SLP027 DENSITY ALT 4800FT=
METAR CYBW 181400Z AUTO VRB02KT 9SM SCT210 13/05 A2961 RMK SLP022 DENSITY ALT 4900FT=
METAR CYBW 181300Z AUTO 28008KT 9SM FEW200 11/04 A2960 RMK SLP022 DENSITY ALT 4700FT=

TAF CYBW 181138Z 1812/1824 VRB03KT P6SM BKN240
BECMG 1812/1814 28010KT
BECMG 1815/1817 29015G25KT
FM182000 30015G25KT P6SM BKN080 BKN240
RMK FCST BASED ON AUTO OBS. NXT FCST BY 181800Z=


GRAPHICAL FA CLOUDS & WEATHER FORECASTS
To the Product Selector
Graphical FA gfacn32      

GRAPHICAL FA ICING, TURBULENCE & FREEZING LEVEL FORECASTS
To the Product Selector
Graphical FA gfacn32      

Your time UTC time
Weather data provided by Environment Canada and NAV CANADA